Time;durP1;ratioP1;P1;durP2;ratioP2;P2;SDS_P1;SDS_P2;PMS_P1;PMS_P2;Temp;Humidity;BMP_temperature;BMP_pressure;BME280_temperature;BME280_humidity;BME280_pressure;Samples;Min_cycle;Max_cycle;Signal;HPM_P1;HPM_P2
2024/05/04 00:13:20;;;;;;;25.2;12.9;;;;;;;;;;;;;-73
2024/05/04 00:43:21;;;;;;;24.9;12;;;;;;;;;;;;;-74
2024/05/04 01:13:22;;;;;;;20;11.2;;;;;;;;;;;;;-72
2024/05/04 01:43:23;;;;;;;23.5;12.2;;;;;;;;;;;;;-74
2024/05/04 02:13:24;;;;;;;19.5;10.8;;;;;;;;;;;;;-76
2024/05/04 02:43:25;;;;;;;18.3;9.8;;;;;;;;;;;;;-74
2024/05/04 03:13:28;;;;;;;17.2;9;;;;;;;;;;;;;-75
2024/05/04 03:43:27;;;;;;;16.5;8.6;;;;;;;;;;;;;-75
2024/05/04 04:13:28;;;;;;;16.7;9.7;;;;;;;;;;;;;-73
2024/05/04 04:43:29;;;;;;;23.1;12.4;;;;;;;;;;;;;-70
2024/05/04 05:13:30;;;;;;;28.6;15.6;;;;;;;;;;;;;-68
2024/05/04 05:43:31;;;;;;;20.1;13;;;;;;;;;;;;;-67
2024/05/04 06:13:33;;;;;;;18.4;10.8;;;;;;;;;;;;;-69
2024/05/04 06:43:36;;;;;;;14.8;9.9;;;;;;;;;;;;;-71
2024/05/04 07:13:38;;;;;;;9.9;7.4;;;;;;;;;;;;;-70
2024/05/04 07:43:41;;;;;;;8.4;5.5;;;;;;;;;;;;;-69
2024/05/04 08:13:43;;;;;;;8.5;4.6;;;;;;;;;;;;;-71
2024/05/04 08:43:47;;;;;;;9.3;4.9;;;;;;;;;;;;;-70
2024/05/04 09:13:49;;;;;;;10.5;7;;;;;;;;;;;;;-70
2024/05/04 09:43:52;;;;;;;9.6;6.5;;;;;;;;;;;;;-76
2024/05/04 10:13:55;;;;;;;7.5;5.2;;;;;;;;;;;;;-68
2024/05/04 10:43:58;;;;;;;6.5;3.6;;;;;;;;;;;;;-70
2024/05/04 11:14:03;;;;;;;3.8;2.3;;;;;;;;;;;;;-85
2024/05/04 11:44:05;;;;;;;4.8;2.4;;;;;;;;;;;;;-68
2024/05/04 12:14:09;;;;;;;4.5;2.2;;;;;;;;;;;;;-68
2024/05/04 12:44:12;;;;;;;3.6;2.3;;;;;;;;;;;;;-69
2024/05/04 13:14:15;;;;;;;4.1;2.2;;;;;;;;;;;;;-67
2024/05/04 13:44:18;;;;;;;6;2.3;;;;;;;;;;;;;-75
2024/05/04 14:14:22;;;;;;;5.1;2.6;;;;;;;;;;;;;-69
2024/05/04 14:44:26;;;;;;;8.9;5.3;;;;;;;;;;;;;-68
2024/05/04 15:14:29;;;;;;;5.8;3.2;;;;;;;;;;;;;-72
2024/05/04 15:44:32;;;;;;;4.3;2;;;;;;;;;;;;;-68
2024/05/04 16:14:36;;;;;;;2.6;1.1;;;;;;;;;;;;;-70
2024/05/04 16:44:39;;;;;;;4.3;1.1;;;;;;;;;;;;;-73
2024/05/04 17:14:42;;;;;;;2.4;0.7;;;;;;;;;;;;;-67
2024/05/04 17:44:45;;;;;;;2.7;1.1;;;;;;;;;;;;;-68
2024/05/04 18:14:47;;;;;;;3;1;;;;;;;;;;;;;-70
2024/05/04 18:44:49;;;;;;;2.6;1.1;;;;;;;;;;;;;-72
2024/05/04 19:14:52;;;;;;;2.4;1.5;;;;;;;;;;;;;-70
2024/05/04 19:44:52;;;;;;;2.2;1.6;;;;;;;;;;;;;-66
2024/05/04 20:14:54;;;;;;;3;1.5;;;;;;;;;;;;;-69
2024/05/04 20:44:55;;;;;;;5;2.5;;;;;;;;;;;;;-73
2024/05/04 21:14:57;;;;;;;3.7;2.3;;;;;;;;;;;;;-73
2024/05/04 21:44:58;;;;;;;3.3;2.2;;;;;;;;;;;;;-75
2024/05/04 22:15:00;;;;;;;3.7;2.3;;;;;;;;;;;;;-72
2024/05/04 22:45:01;;;;;;;4.4;3.1;;;;;;;;;;;;;-72
2024/05/04 23:15:03;;;;;;;4.8;3.5;;;;;;;;;;;;;-73
2024/05/04 23:45:05;;;;;;;6.5;5.7;;;;;;;;;;;;;-74
